This is the latest recevied weather packets stored in our database for station/object YN9ZAM-13. If no packets are shown the sender has not sent any weather packets the latest 10 day(s).
| Time | Temp. | Humidity | Pressure | Rain* | Wind** | Luminosity | Snow |
|---|---|---|---|---|---|---|---|
| 1778166248 | 26.67° C | 48% | 1013 hPa | 0 mm | - | - | - |
| 1778165648 | 26.67° C | 47% | 1013 hPa | 0 mm | - | - | - |
| 1778165047 | 26.67° C | 53% | 1013 hPa | 0 mm | - | - | - |
| 1778164447 | 26.67° C | 62% | 1013 hPa | 0 mm | - | - | - |
| 1778163846 | 27.22° C | 62% | 1013 hPa | 0 mm | - | - | - |
| 1778163246 | 27.78° C | 62% | 1013 hPa | 0 mm | - | - | - |
| 1778162646 | 28.33° C | 62% | 1013 hPa | 0 mm | - | - | - |
| 1778162046 | 28.89° C | 62% | 1013 hPa | 0 mm | - | - | - |
| 1778161445 | 28.89° C | 62% | 1013 hPa | 0 mm | - | - | - |
| 1778160845 | 22.78° C | 71% | 1013 hPa | 0 mm | - | - | - |
| 1778160245 | 23.33° C | 71% | 1013 hPa | 0 mm | - | - | - |
| 1778159644 | 23.89° C | 71% | 1013 hPa | 0 mm | - | - | - |
| 1778159044 | 24.44° C | 71% | 1013 hPa | 0 mm | - | - | - |
| 1778158444 | 25° C | 71% | 1013 hPa | 0 mm | - | - | - |
| 1778157843 | 25.56° C | 71% | 1013 hPa | 0 mm | - | - | - |
| 1778157243 | 20° C | 76% | 1013 hPa | 0 mm | - | - | - |
| 1778156642 | 20° C | 76% | 1013 hPa | 0 mm | - | - | - |
| 1778156042 | 20.56° C | 76% | 1013 hPa | 0 mm | - | - | - |
| 1778155442 | 21.11° C | 76% | 1013 hPa | 0 mm | - | - | - |
| 1778154842 | 21.67° C | 76% | 1013 hPa | 0 mm | - | - | - |
| 1778154241 | 22.22° C | 76% | 1013 hPa | 0 mm | - | - | - |
| 1778153641 | 20° C | 73% | 1013 hPa | 0 mm | - | - | - |
| 1778153041 | 20.56° C | 73% | 1012 hPa | 0 mm | - | - | - |
| 1778152441 | 20.56° C | 73% | 1012 hPa | 0 mm | - | - | - |
| 1778151840 | 21.11° C | 73% | 1012 hPa | 0 mm | - | - | - |
* Rain latest hour (hover to see other rain measurements)
** Current wind speed in m/s (hover to see current wind gust speed)